sensor_id;sensor_type;location;lat;lon;timestamp;P1;durP1;ratioP1;P2;durP2;ratioP2
17727;SDS011;8984;49.268;12.302;2023-10-13T00:02:13;14.90;;;7.97;;
17727;SDS011;8984;49.268;12.302;2023-10-13T00:04:45;11.67;;;6.70;;
17727;SDS011;8984;49.268;12.302;2023-10-13T00:07:12;9.07;;;6.40;;
17727;SDS011;8984;49.268;12.302;2023-10-13T00:09:38;9.27;;;6.57;;
17727;SDS011;8984;49.268;12.302;2023-10-13T00:12:06;9.23;;;7.10;;
17727;SDS011;8984;49.268;12.302;2023-10-13T00:14:38;8.43;;;6.80;;
17727;SDS011;8984;49.268;12.302;2023-10-13T00:17:06;8.30;;;6.60;;
17727;SDS011;8984;49.268;12.302;2023-10-13T00:19:36;11.60;;;7.20;;
17727;SDS011;8984;49.268;12.302;2023-10-13T00:22:11;12.27;;;7.03;;
17727;SDS011;8984;49.268;12.302;2023-10-13T00:24:41;13.50;;;7.43;;
17727;SDS011;8984;49.268;12.302;2023-10-13T00:27:11;9.57;;;7.13;;
17727;SDS011;8984;49.268;12.302;2023-10-13T00:29:54;11.73;;;7.30;;
17727;SDS011;8984;49.268;12.302;2023-10-13T00:32:41;11.97;;;7.40;;
17727;SDS011;8984;49.268;12.302;2023-10-13T00:35:09;9.73;;;6.63;;
17727;SDS011;8984;49.268;12.302;2023-10-13T00:37:39;12.50;;;6.70;;
17727;SDS011;8984;49.268;12.302;2023-10-13T00:40:09;14.43;;;8.73;;
17727;SDS011;8984;49.268;12.302;2023-10-13T00:43:00;10.83;;;7.50;;
17727;SDS011;8984;49.268;12.302;2023-10-13T00:45:50;9.53;;;7.90;;
17727;SDS011;8984;49.268;12.302;2023-10-13T00:48:20;16.57;;;9.00;;
17727;SDS011;8984;49.268;12.302;2023-10-13T00:50:49;10.70;;;6.93;;
17727;SDS011;8984;49.268;12.302;2023-10-13T00:53:17;10.57;;;6.60;;
17727;SDS011;8984;49.268;12.302;2023-10-13T00:55:46;10.67;;;7.30;;
17727;SDS011;8984;49.268;12.302;2023-10-13T00:58:12;11.37;;;7.47;;
17727;SDS011;8984;49.268;12.302;2023-10-13T01:00:40;10.83;;;7.17;;
17727;SDS011;8984;49.268;12.302;2023-10-13T01:03:12;10.90;;;7.07;;
17727;SDS011;8984;49.268;12.302;2023-10-13T01:05:39;14.37;;;7.80;;
17727;SDS011;8984;49.268;12.302;2023-10-13T01:08:06;13.97;;;7.67;;
17727;SDS011;8984;49.268;12.302;2023-10-13T01:10:37;9.57;;;6.70;;
17727;SDS011;8984;49.268;12.302;2023-10-13T01:13:03;12.03;;;7.40;;
17727;SDS011;8984;49.268;12.302;2023-10-13T01:15:30;10.50;;;6.93;;
17727;SDS011;8984;49.268;12.302;2023-10-13T01:18:05;10.50;;;6.90;;
17727;SDS011;8984;49.268;12.302;2023-10-13T01:20:36;13.20;;;6.87;;
17727;SDS011;8984;49.268;12.302;2023-10-13T01:23:10;13.53;;;7.33;;
17727;SDS011;8984;49.268;12.302;2023-10-13T01:25:43;9.40;;;7.10;;
17727;SDS011;8984;49.268;12.302;2023-10-13T01:28:10;10.43;;;7.03;;
17727;SDS011;8984;49.268;12.302;2023-10-13T01:30:40;7.67;;;6.67;;
17727;SDS011;8984;49.268;12.302;2023-10-13T01:33:07;10.03;;;6.90;;
17727;SDS011;8984;49.268;12.302;2023-10-13T01:35:36;11.33;;;6.50;;
17727;SDS011;8984;49.268;12.302;2023-10-13T01:38:07;9.93;;;7.30;;
17727;SDS011;8984;49.268;12.302;2023-10-13T01:40:35;10.97;;;7.60;;
17727;SDS011;8984;49.268;12.302;2023-10-13T01:43:01;10.77;;;6.20;;
17727;SDS011;8984;49.268;12.302;2023-10-13T01:45:29;10.57;;;7.30;;
17727;SDS011;8984;49.268;12.302;2023-10-13T01:47:55;12.37;;;6.77;;
17727;SDS011;8984;49.268;12.302;2023-10-13T01:50:22;6.80;;;5.80;;
17727;SDS011;8984;49.268;12.302;2023-10-13T01:52:54;14.77;;;7.10;;
17727;SDS011;8984;49.268;12.302;2023-10-13T01:55:37;7.60;;;6.17;;
17727;SDS011;8984;49.268;12.302;2023-10-13T01:58:08;10.77;;;6.40;;
17727;SDS011;8984;49.268;12.302;2023-10-13T02:00:39;10.63;;;6.47;;
17727;SDS011;8984;49.268;12.302;2023-10-13T02:03:07;8.23;;;6.10;;
17727;SDS011;8984;49.268;12.302;2023-10-13T02:05:41;10.53;;;6.70;;
17727;SDS011;8984;49.268;12.302;2023-10-13T02:08:12;8.77;;;6.70;;
17727;SDS011;8984;49.268;12.302;2023-10-13T02:10:44;10.77;;;6.50;;
17727;SDS011;8984;49.268;12.302;2023-10-13T02:13:12;9.30;;;7.30;;
17727;SDS011;8984;49.268;12.302;2023-10-13T02:15:43;11.17;;;6.80;;
17727;SDS011;8984;49.268;12.302;2023-10-13T02:18:12;8.13;;;7.10;;
17727;SDS011;8984;49.268;12.302;2023-10-13T02:20:39;9.50;;;6.47;;
17727;SDS011;8984;49.268;12.302;2023-10-13T02:23:10;9.90;;;6.80;;
17727;SDS011;8984;49.268;12.302;2023-10-13T02:25:37;9.47;;;6.60;;
17727;SDS011;8984;49.268;12.302;2023-10-13T02:28:12;9.73;;;6.50;;
17727;SDS011;8984;49.268;12.302;2023-10-13T02:30:46;10.53;;;6.87;;
17727;SDS011;8984;49.268;12.302;2023-10-13T02:33:15;10.77;;;7.00;;
17727;SDS011;8984;49.268;12.302;2023-10-13T02:35:47;11.07;;;6.77;;
17727;SDS011;8984;49.268;12.302;2023-10-13T02:38:18;12.73;;;6.97;;
17727;SDS011;8984;49.268;12.302;2023-10-13T02:40:52;10.60;;;6.53;;
17727;SDS011;8984;49.268;12.302;2023-10-13T02:43:22;10.70;;;6.87;;
17727;SDS011;8984;49.268;12.302;2023-10-13T02:45:51;9.20;;;6.50;;
17727;SDS011;8984;49.268;12.302;2023-10-13T02:48:23;9.40;;;6.60;;
17727;SDS011;8984;49.268;12.302;2023-10-13T02:50:55;10.47;;;7.67;;
17727;SDS011;8984;49.268;12.302;2023-10-13T02:53:30;8.73;;;6.50;;
17727;SDS011;8984;49.268;12.302;2023-10-13T02:55:56;9.77;;;6.47;;
17727;SDS011;8984;49.268;12.302;2023-10-13T02:58:31;16.37;;;6.53;;
17727;SDS011;8984;49.268;12.302;2023-10-13T03:01:05;9.17;;;6.53;;
17727;SDS011;8984;49.268;12.302;2023-10-13T03:03:42;8.97;;;6.80;;
17727;SDS011;8984;49.268;12.302;2023-10-13T03:06:08;9.97;;;6.37;;
17727;SDS011;8984;49.268;12.302;2023-10-13T03:08:37;9.83;;;6.83;;
17727;SDS011;8984;49.268;12.302;2023-10-13T03:11:03;9.00;;;6.10;;
17727;SDS011;8984;49.268;12.302;2023-10-13T03:13:32;7.40;;;6.17;;
17727;SDS011;8984;49.268;12.302;2023-10-13T03:15:58;9.47;;;6.13;;
17727;SDS011;8984;49.268;12.302;2023-10-13T03:18:25;9.00;;;6.47;;
17727;SDS011;8984;49.268;12.302;2023-10-13T03:20:51;10.87;;;6.70;;
17727;SDS011;8984;49.268;12.302;2023-10-13T03:23:22;9.17;;;6.10;;
17727;SDS011;8984;49.268;12.302;2023-10-13T03:25:49;7.33;;;6.17;;
17727;SDS011;8984;49.268;12.302;2023-10-13T03:28:20;10.53;;;7.10;;
17727;SDS011;8984;49.268;12.302;2023-10-13T03:30:52;8.60;;;6.60;;
17727;SDS011;8984;49.268;12.302;2023-10-13T03:33:19;10.47;;;6.30;;
17727;SDS011;8984;49.268;12.302;2023-10-13T03:35:51;11.47;;;6.60;;
17727;SDS011;8984;49.268;12.302;2023-10-13T03:38:19;7.70;;;6.57;;
17727;SDS011;8984;49.268;12.302;2023-10-13T03:40:52;9.90;;;6.90;;
17727;SDS011;8984;49.268;12.302;2023-10-13T03:43:32;7.63;;;6.40;;
17727;SDS011;8984;49.268;12.302;2023-10-13T03:46:11;9.33;;;6.53;;
17727;SDS011;8984;49.268;12.302;2023-10-13T03:48:38;7.00;;;6.00;;
17727;SDS011;8984;49.268;12.302;2023-10-13T03:51:17;9.00;;;6.07;;
17727;SDS011;8984;49.268;12.302;2023-10-13T03:53:44;7.90;;;6.30;;
17727;SDS011;8984;49.268;12.302;2023-10-13T03:56:17;8.67;;;5.50;;
17727;SDS011;8984;49.268;12.302;2023-10-13T03:58:51;9.37;;;5.73;;
17727;SDS011;8984;49.268;12.302;2023-10-13T04:01:20;9.60;;;6.10;;
17727;SDS011;8984;49.268;12.302;2023-10-13T04:03:56;13.17;;;5.80;;
17727;SDS011;8984;49.268;12.302;2023-10-13T04:06:28;9.47;;;6.13;;
17727;SDS011;8984;49.268;12.302;2023-10-13T04:09:24;13.80;;;6.70;;
17727;SDS011;8984;49.268;12.302;2023-10-13T04:12:08;10.93;;;6.20;;
17727;SDS011;8984;49.268;12.302;2023-10-13T04:15:06;12.57;;;6.20;;
17727;SDS011;8984;49.268;12.302;2023-10-13T04:17:48;8.97;;;5.83;;
17727;SDS011;8984;49.268;12.302;2023-10-13T04:20:16;9.23;;;6.10;;
17727;SDS011;8984;49.268;12.302;2023-10-13T04:23:03;10.47;;;6.57;;
17727;SDS011;8984;49.268;12.302;2023-10-13T04:25:45;9.53;;;6.43;;
17727;SDS011;8984;49.268;12.302;2023-10-13T04:28:34;11.00;;;6.93;;
17727;SDS011;8984;49.268;12.302;2023-10-13T04:31:02;9.60;;;6.87;;
17727;SDS011;8984;49.268;12.302;2023-10-13T04:33:38;10.33;;;6.23;;
17727;SDS011;8984;49.268;12.302;2023-10-13T04:36:16;10.00;;;5.90;;
17727;SDS011;8984;49.268;12.302;2023-10-13T04:38:47;9.97;;;6.27;;
17727;SDS011;8984;49.268;12.302;2023-10-13T04:41:26;12.30;;;6.73;;
17727;SDS011;8984;49.268;12.302;2023-10-13T04:43:57;8.60;;;6.60;;
17727;SDS011;8984;49.268;12.302;2023-10-13T04:46:30;7.90;;;5.93;;
17727;SDS011;8984;49.268;12.302;2023-10-13T04:49:19;9.17;;;6.43;;
17727;SDS011;8984;49.268;12.302;2023-10-13T04:51:54;7.37;;;5.90;;
17727;SDS011;8984;49.268;12.302;2023-10-13T04:54:38;14.83;;;6.70;;
17727;SDS011;8984;49.268;12.302;2023-10-13T04:57:16;10.43;;;7.23;;
17727;SDS011;8984;49.268;12.302;2023-10-13T04:59:49;13.67;;;7.53;;
17727;SDS011;8984;49.268;12.302;2023-10-13T05:02:43;14.87;;;6.70;;
17727;SDS011;8984;49.268;12.302;2023-10-13T05:05:42;12.03;;;7.57;;
17727;SDS011;8984;49.268;12.302;2023-10-13T05:08:35;11.40;;;7.60;;
17727;SDS011;8984;49.268;12.302;2023-10-13T05:11:19;11.20;;;7.00;;
17727;SDS011;8984;49.268;12.302;2023-10-13T05:14:05;11.00;;;6.47;;
17727;SDS011;8984;49.268;12.302;2023-10-13T05:16:50;13.50;;;7.03;;
17727;SDS011;8984;49.268;12.302;2023-10-13T05:19:30;9.67;;;7.50;;
17727;SDS011;8984;49.268;12.302;2023-10-13T05:22:15;11.67;;;7.30;;
17727;SDS011;8984;49.268;12.302;2023-10-13T05:24:59;11.07;;;7.63;;
17727;SDS011;8984;49.268;12.302;2023-10-13T05:27:43;10.17;;;7.13;;
17727;SDS011;8984;49.268;12.302;2023-10-13T05:30:28;13.07;;;7.80;;
17727;SDS011;8984;49.268;12.302;2023-10-13T05:33:13;11.23;;;6.83;;
17727;SDS011;8984;49.268;12.302;2023-10-13T05:35:57;10.40;;;7.30;;
17727;SDS011;8984;49.268;12.302;2023-10-13T05:38:42;10.43;;;7.80;;
17727;SDS011;8984;49.268;12.302;2023-10-13T05:41:26;15.63;;;8.23;;
17727;SDS011;8984;49.268;12.302;2023-10-13T05:44:10;12.47;;;8.10;;
17727;SDS011;8984;49.268;12.302;2023-10-13T05:46:56;13.43;;;7.93;;
17727;SDS011;8984;49.268;12.302;2023-10-13T05:49:59;12.10;;;8.20;;
17727;SDS011;8984;49.268;12.302;2023-10-13T05:52:30;10.17;;;7.83;;
17727;SDS011;8984;49.268;12.302;2023-10-13T05:55:15;12.50;;;7.93;;
17727;SDS011;8984;49.268;12.302;2023-10-13T05:57:59;12.23;;;8.90;;
17727;SDS011;8984;49.268;12.302;2023-10-13T06:00:43;15.97;;;9.43;;
17727;SDS011;8984;49.268;12.302;2023-10-13T06:03:29;18.43;;;9.40;;
17727;SDS011;8984;49.268;12.302;2023-10-13T06:06:14;12.50;;;9.87;;
17727;SDS011;8984;49.268;12.302;2023-10-13T06:08:58;15.23;;;9.60;;
17727;SDS011;8984;49.268;12.302;2023-10-13T06:11:42;14.10;;;9.43;;
17727;SDS011;8984;49.268;12.302;2023-10-13T06:14:27;20.40;;;10.60;;
17727;SDS011;8984;49.268;12.302;2023-10-13T06:17:11;17.70;;;9.10;;
17727;SDS011;8984;49.268;12.302;2023-10-13T06:19:57;20.73;;;10.07;;
17727;SDS011;8984;49.268;12.302;2023-10-13T06:22:53;11.10;;;8.53;;
17727;SDS011;8984;49.268;12.302;2023-10-13T06:25:38;16.70;;;9.43;;
17727;SDS011;8984;49.268;12.302;2023-10-13T06:28:22;21.97;;;9.37;;
17727;SDS011;8984;49.268;12.302;2023-10-13T06:31:07;16.23;;;8.73;;
17727;SDS011;8984;49.268;12.302;2023-10-13T06:33:39;16.03;;;9.40;;
17727;SDS011;8984;49.268;12.302;2023-10-13T06:36:11;12.17;;;8.90;;
17727;SDS011;8984;49.268;12.302;2023-10-13T06:38:38;12.73;;;8.97;;
17727;SDS011;8984;49.268;12.302;2023-10-13T06:41:06;22.23;;;10.00;;
17727;SDS011;8984;49.268;12.302;2023-10-13T06:43:34;13.50;;;8.77;;
17727;SDS011;8984;49.268;12.302;2023-10-13T06:46:05;15.63;;;8.80;;
17727;SDS011;8984;49.268;12.302;2023-10-13T06:48:32;14.63;;;8.70;;
17727;SDS011;8984;49.268;12.302;2023-10-13T06:51:00;14.47;;;9.20;;
17727;SDS011;8984;49.268;12.302;2023-10-13T06:53:38;14.30;;;9.37;;
17727;SDS011;8984;49.268;12.302;2023-10-13T06:56:11;14.50;;;9.40;;
17727;SDS011;8984;49.268;12.302;2023-10-13T06:58:42;13.30;;;8.70;;
17727;SDS011;8984;49.268;12.302;2023-10-13T07:01:11;14.77;;;9.27;;
17727;SDS011;8984;49.268;12.302;2023-10-13T07:03:41;15.30;;;8.53;;
17727;SDS011;8984;49.268;12.302;2023-10-13T07:06:09;15.30;;;9.07;;
17727;SDS011;8984;49.268;12.302;2023-10-13T07:08:38;21.27;;;10.73;;
17727;SDS011;8984;49.268;12.302;2023-10-13T07:11:05;18.23;;;10.73;;
17727;SDS011;8984;49.268;12.302;2023-10-13T07:13:33;16.53;;;9.43;;
17727;SDS011;8984;49.268;12.302;2023-10-13T07:16:04;14.37;;;8.43;;
17727;SDS011;8984;49.268;12.302;2023-10-13T07:18:33;16.60;;;9.53;;
17727;SDS011;8984;49.268;12.302;2023-10-13T07:21:03;16.53;;;9.07;;
17727;SDS011;8984;49.268;12.302;2023-10-13T07:23:35;14.83;;;8.80;;
17727;SDS011;8984;49.268;12.302;2023-10-13T07:26:04;14.60;;;9.43;;
17727;SDS011;8984;49.268;12.302;2023-10-13T07:28:33;14.00;;;8.40;;
17727;SDS011;8984;49.268;12.302;2023-10-13T07:31:08;13.73;;;8.13;;
17727;SDS011;8984;49.268;12.302;2023-10-13T07:33:41;15.40;;;8.40;;
17727;SDS011;8984;49.268;12.302;2023-10-13T07:36:08;9.40;;;7.23;;
17727;SDS011;8984;49.268;12.302;2023-10-13T07:38:42;11.13;;;7.70;;
17727;SDS011;8984;49.268;12.302;2023-10-13T07:41:14;11.33;;;7.97;;
17727;SDS011;8984;49.268;12.302;2023-10-13T07:43:42;15.10;;;8.53;;
17727;SDS011;8984;49.268;12.302;2023-10-13T07:46:10;14.03;;;9.63;;
17727;SDS011;8984;49.268;12.302;2023-10-13T07:48:37;13.63;;;8.30;;
17727;SDS011;8984;49.268;12.302;2023-10-13T07:51:06;13.37;;;8.17;;
17727;SDS011;8984;49.268;12.302;2023-10-13T07:53:36;16.83;;;9.13;;
17727;SDS011;8984;49.268;12.302;2023-10-13T07:56:05;14.55;;;8.30;;
17727;SDS011;8984;49.268;12.302;2023-10-13T07:58:35;11.83;;;7.07;;
17727;SDS011;8984;49.268;12.302;2023-10-13T08:01:12;14.77;;;7.35;;
17727;SDS011;8984;49.268;12.302;2023-10-13T08:03:43;13.13;;;7.57;;
17727;SDS011;8984;49.268;12.302;2023-10-13T08:06:10;10.60;;;6.38;;
17727;SDS011;8984;49.268;12.302;2023-10-13T08:08:45;12.18;;;6.95;;
17727;SDS011;8984;49.268;12.302;2023-10-13T08:11:16;9.57;;;6.47;;
17727;SDS011;8984;49.268;12.302;2023-10-13T08:13:58;13.40;;;6.88;;
17727;SDS011;8984;49.268;12.302;2023-10-13T08:16:25;9.98;;;6.55;;
17727;SDS011;8984;49.268;12.302;2023-10-13T08:19:10;12.32;;;5.75;;
17727;SDS011;8984;49.268;12.302;2023-10-13T08:21:40;11.40;;;5.72;;
17727;SDS011;8984;49.268;12.302;2023-10-13T08:24:14;7.85;;;5.28;;
17727;SDS011;8984;49.268;12.302;2023-10-13T08:26:41;10.52;;;5.90;;
17727;SDS011;8984;49.268;12.302;2023-10-13T08:29:24;10.93;;;5.55;;
17727;SDS011;8984;49.268;12.302;2023-10-13T08:32:11;10.93;;;5.75;;
17727;SDS011;8984;49.268;12.302;2023-10-13T08:34:48;8.77;;;5.53;;
17727;SDS011;8984;49.268;12.302;2023-10-13T08:37:34;14.88;;;5.57;;
17727;SDS011;8984;49.268;12.302;2023-10-13T08:40:12;11.23;;;5.50;;
17727;SDS011;8984;49.268;12.302;2023-10-13T08:43:09;8.52;;;5.07;;
17727;SDS011;8984;49.268;12.302;2023-10-13T08:45:38;8.50;;;5.13;;
17727;SDS011;8984;49.268;12.302;2023-10-13T08:48:24;11.85;;;5.25;;
17727;SDS011;8984;49.268;12.302;2023-10-13T08:50:58;8.73;;;4.97;;
17727;SDS011;8984;49.268;12.302;2023-10-13T08:53:34;14.13;;;5.28;;
17727;SDS011;8984;49.268;12.302;2023-10-13T08:56:10;13.82;;;4.97;;
17727;SDS011;8984;49.268;12.302;2023-10-13T08:58:44;6.75;;;4.97;;
17727;SDS011;8984;49.268;12.302;2023-10-13T09:01:27;10.50;;;4.90;;
17727;SDS011;8984;49.268;12.302;2023-10-13T09:04:02;7.75;;;4.65;;
17727;SDS011;8984;49.268;12.302;2023-10-13T09:06:46;6.60;;;4.13;;
17727;SDS011;8984;49.268;12.302;2023-10-13T09:09:28;7.63;;;4.43;;
17727;SDS011;8984;49.268;12.302;2023-10-13T09:11:59;8.30;;;4.60;;
17727;SDS011;8984;49.268;12.302;2023-10-13T09:14:35;8.15;;;4.40;;
17727;SDS011;8984;49.268;12.302;2023-10-13T09:17:05;7.55;;;4.82;;
17727;SDS011;8984;49.268;12.302;2023-10-13T09:19:58;9.63;;;4.63;;
17727;SDS011;8984;49.268;12.302;2023-10-13T09:22:46;8.00;;;4.22;;
17727;SDS011;8984;49.268;12.302;2023-10-13T09:25:21;8.90;;;4.45;;
17727;SDS011;8984;49.268;12.302;2023-10-13T09:27:48;10.95;;;4.45;;
17727;SDS011;8984;49.268;12.302;2023-10-13T09:30:18;8.40;;;4.90;;
17727;SDS011;8984;49.268;12.302;2023-10-13T09:32:49;8.43;;;4.40;;
17727;SDS011;8984;49.268;12.302;2023-10-13T09:35:27;7.18;;;4.10;;
17727;SDS011;8984;49.268;12.302;2023-10-13T09:37:53;11.55;;;4.57;;
17727;SDS011;8984;49.268;12.302;2023-10-13T09:40:21;9.90;;;4.53;;
17727;SDS011;8984;49.268;12.302;2023-10-13T09:42:52;11.85;;;4.53;;
17727;SDS011;8984;49.268;12.302;2023-10-13T09:45:23;9.45;;;4.45;;
17727;SDS011;8984;49.268;12.302;2023-10-13T09:47:55;10.27;;;4.45;;
17727;SDS011;8984;49.268;12.302;2023-10-13T09:50:31;10.18;;;4.00;;
17727;SDS011;8984;49.268;12.302;2023-10-13T09:53:03;9.05;;;4.32;;
17727;SDS011;8984;49.268;12.302;2023-10-13T09:55:35;9.25;;;4.40;;
17727;SDS011;8984;49.268;12.302;2023-10-13T09:58:10;8.55;;;4.07;;
17727;SDS011;8984;49.268;12.302;2023-10-13T10:00:41;7.72;;;3.83;;
17727;SDS011;8984;49.268;12.302;2023-10-13T10:03:24;11.80;;;4.55;;
17727;SDS011;8984;49.268;12.302;2023-10-13T10:06:05;8.23;;;3.85;;
17727;SDS011;8984;49.268;12.302;2023-10-13T10:08:38;8.07;;;4.05;;
17727;SDS011;8984;49.268;12.302;2023-10-13T10:11:23;8.88;;;3.88;;
17727;SDS011;8984;49.268;12.302;2023-10-13T10:14:16;10.82;;;3.70;;
17727;SDS011;8984;49.268;12.302;2023-10-13T10:16:51;11.55;;;3.78;;
17727;SDS011;8984;49.268;12.302;2023-10-13T10:19:44;11.85;;;4.15;;
17727;SDS011;8984;49.268;12.302;2023-10-13T10:22:24;9.43;;;3.70;;
17727;SDS011;8984;49.268;12.302;2023-10-13T10:24:55;12.43;;;3.85;;
17727;SDS011;8984;49.268;12.302;2023-10-13T10:27:27;7.50;;;3.80;;
17727;SDS011;8984;49.268;12.302;2023-10-13T10:29:56;9.85;;;4.32;;
17727;SDS011;8984;49.268;12.302;2023-10-13T10:32:33;8.35;;;4.05;;
17727;SDS011;8984;49.268;12.302;2023-10-13T10:35:08;8.07;;;3.97;;
17727;SDS011;8984;49.268;12.302;2023-10-13T10:37:40;7.75;;;3.75;;
17727;SDS011;8984;49.268;12.302;2023-10-13T10:40:13;13.00;;;3.95;;
17727;SDS011;8984;49.268;12.302;2023-10-13T10:42:58;8.05;;;4.13;;
17727;SDS011;8984;49.268;12.302;2023-10-13T10:45:26;8.27;;;4.07;;
17727;SDS011;8984;49.268;12.302;2023-10-13T10:47:57;6.00;;;4.07;;
17727;SDS011;8984;49.268;12.302;2023-10-13T10:50:26;8.75;;;4.00;;
17727;SDS011;8984;49.268;12.302;2023-10-13T10:53:00;8.00;;;3.42;;
17727;SDS011;8984;49.268;12.302;2023-10-13T10:55:33;7.80;;;3.50;;
17727;SDS011;8984;49.268;12.302;2023-10-13T10:58:02;9.60;;;4.05;;
17727;SDS011;8984;49.268;12.302;2023-10-13T11:00:31;7.30;;;3.63;;
17727;SDS011;8984;49.268;12.302;2023-10-13T11:03:11;8.73;;;4.10;;
17727;SDS011;8984;49.268;12.302;2023-10-13T11:05:46;10.48;;;3.88;;
17727;SDS011;8984;49.268;12.302;2023-10-13T11:08:21;12.07;;;3.50;;
17727;SDS011;8984;49.268;12.302;2023-10-13T11:10:56;9.48;;;4.30;;
17727;SDS011;8984;49.268;12.302;2023-10-13T11:13:25;10.02;;;4.25;;
17727;SDS011;8984;49.268;12.302;2023-10-13T11:15:56;6.97;;;3.60;;
17727;SDS011;8984;49.268;12.302;2023-10-13T11:18:28;5.50;;;3.58;;
17727;SDS011;8984;49.268;12.302;2023-10-13T11:21:00;11.27;;;3.65;;
17727;SDS011;8984;49.268;12.302;2023-10-13T11:23:32;8.55;;;3.47;;
17727;SDS011;8984;49.268;12.302;2023-10-13T11:26:01;6.50;;;3.30;;
17727;SDS011;8984;49.268;12.302;2023-10-13T11:28:29;6.80;;;3.50;;
17727;SDS011;8984;49.268;12.302;2023-10-13T11:30:59;6.18;;;3.47;;
17727;SDS011;8984;49.268;12.302;2023-10-13T11:33:35;9.02;;;3.97;;
17727;SDS011;8984;49.268;12.302;2023-10-13T11:36:13;10.93;;;3.55;;
17727;SDS011;8984;49.268;12.302;2023-10-13T11:38:42;8.80;;;3.40;;
17727;SDS011;8984;49.268;12.302;2023-10-13T11:41:14;6.63;;;3.47;;
17727;SDS011;8984;49.268;12.302;2023-10-13T11:43:44;7.60;;;3.35;;
17727;SDS011;8984;49.268;12.302;2023-10-13T11:46:48;15.30;;;4.10;;
17727;SDS011;8984;49.268;12.302;2023-10-13T11:49:21;11.57;;;3.35;;
17727;SDS011;8984;49.268;12.302;2023-10-13T11:52:01;6.30;;;3.22;;
17727;SDS011;8984;49.268;12.302;2023-10-13T11:54:42;10.95;;;4.18;;
17727;SDS011;8984;49.268;12.302;2023-10-13T11:57:09;11.85;;;3.35;;
17727;SDS011;8984;49.268;12.302;2023-10-13T11:59:36;11.80;;;3.40;;
17727;SDS011;8984;49.268;12.302;2023-10-13T12:02:10;7.47;;;3.10;;
17727;SDS011;8984;49.268;12.302;2023-10-13T12:04:55;8.10;;;3.35;;
17727;SDS011;8984;49.268;12.302;2023-10-13T12:07:25;7.95;;;3.40;;
17727;SDS011;8984;49.268;12.302;2023-10-13T12:10:10;9.23;;;3.90;;
17727;SDS011;8984;49.268;12.302;2023-10-13T12:12:42;5.40;;;3.10;;
17727;SDS011;8984;49.268;12.302;2023-10-13T12:15:11;10.38;;;3.28;;
17727;SDS011;8984;49.268;12.302;2023-10-13T12:17:50;13.57;;;3.60;;
17727;SDS011;8984;49.268;12.302;2023-10-13T12:20:17;9.68;;;4.00;;
17727;SDS011;8984;49.268;12.302;2023-10-13T12:22:58;5.82;;;3.03;;
17727;SDS011;8984;49.268;12.302;2023-10-13T12:25:35;8.30;;;3.10;;
17727;SDS011;8984;49.268;12.302;2023-10-13T12:28:19;11.13;;;3.55;;
17727;SDS011;8984;49.268;12.302;2023-10-13T12:30:52;8.32;;;3.20;;
17727;SDS011;8984;49.268;12.302;2023-10-13T12:33:22;11.02;;;3.60;;
17727;SDS011;8984;49.268;12.302;2023-10-13T12:35:55;14.18;;;3.40;;
17727;SDS011;8984;49.268;12.302;2023-10-13T12:38:53;11.38;;;3.25;;
17727;SDS011;8984;49.268;12.302;2023-10-13T12:41:53;7.50;;;3.50;;
17727;SDS011;8984;49.268;12.302;2023-10-13T12:44:37;5.93;;;3.13;;
17727;SDS011;8984;49.268;12.302;2023-10-13T12:47:22;8.02;;;3.58;;
17727;SDS011;8984;49.268;12.302;2023-10-13T12:50:06;9.18;;;4.30;;
17727;SDS011;8984;49.268;12.302;2023-10-13T12:52:39;8.07;;;3.38;;
17727;SDS011;8984;49.268;12.302;2023-10-13T12:55:11;11.02;;;3.60;;
17727;SDS011;8984;49.268;12.302;2023-10-13T12:57:39;8.70;;;3.20;;
17727;SDS011;8984;49.268;12.302;2023-10-13T13:00:09;8.65;;;2.83;;
17727;SDS011;8984;49.268;12.302;2023-10-13T13:02:46;8.88;;;3.15;;
17727;SDS011;8984;49.268;12.302;2023-10-13T13:05:15;7.57;;;3.15;;
17727;SDS011;8984;49.268;12.302;2023-10-13T13:07:48;9.05;;;3.40;;
17727;SDS011;8984;49.268;12.302;2023-10-13T13:10:19;8.85;;;2.90;;
17727;SDS011;8984;49.268;12.302;2023-10-13T13:12:53;9.95;;;3.50;;
17727;SDS011;8984;49.268;12.302;2023-10-13T13:15:20;6.72;;;2.92;;
17727;SDS011;8984;49.268;12.302;2023-10-13T13:17:48;7.82;;;2.95;;
17727;SDS011;8984;49.268;12.302;2023-10-13T13:20:15;8.07;;;2.95;;
17727;SDS011;8984;49.268;12.302;2023-10-13T13:22:54;8.60;;;3.50;;
17727;SDS011;8984;49.268;12.302;2023-10-13T13:25:28;12.30;;;3.95;;
17727;SDS011;8984;49.268;12.302;2023-10-13T13:27:57;8.52;;;3.55;;
17727;SDS011;8984;49.268;12.302;2023-10-13T13:30:30;8.13;;;3.55;;
17727;SDS011;8984;49.268;12.302;2023-10-13T13:33:00;11.82;;;2.80;;
17727;SDS011;8984;49.268;12.302;2023-10-13T13:35:35;10.55;;;3.72;;
17727;SDS011;8984;49.268;12.302;2023-10-13T13:38:02;28.20;;;3.90;;
17727;SDS011;8984;49.268;12.302;2023-10-13T13:40:37;14.55;;;3.47;;
17727;SDS011;8984;49.268;12.302;2023-10-13T13:43:04;9.82;;;3.20;;
17727;SDS011;8984;49.268;12.302;2023-10-13T13:45:31;9.38;;;3.40;;
17727;SDS011;8984;49.268;12.302;2023-10-13T13:48:00;10.13;;;2.90;;
17727;SDS011;8984;49.268;12.302;2023-10-13T13:50:32;6.15;;;3.05;;
17727;SDS011;8984;49.268;12.302;2023-10-13T13:53:06;10.13;;;3.00;;
17727;SDS011;8984;49.268;12.302;2023-10-13T13:55:35;9.25;;;3.38;;
17727;SDS011;8984;49.268;12.302;2023-10-13T13:58:08;12.70;;;3.30;;
17727;SDS011;8984;49.268;12.302;2023-10-13T14:00:38;8.35;;;3.08;;
17727;SDS011;8984;49.268;12.302;2023-10-13T14:03:13;9.63;;;3.70;;
17727;SDS011;8984;49.268;12.302;2023-10-13T14:05:56;8.52;;;3.47;;
17727;SDS011;8984;49.268;12.302;2023-10-13T14:08:23;6.53;;;3.25;;
17727;SDS011;8984;49.268;12.302;2023-10-13T14:10:50;6.88;;;3.05;;
17727;SDS011;8984;49.268;12.302;2023-10-13T14:13:36;10.63;;;3.20;;
17727;SDS011;8984;49.268;12.302;2023-10-13T14:16:14;7.43;;;3.47;;
17727;SDS011;8984;49.268;12.302;2023-10-13T14:18:41;10.68;;;3.25;;
17727;SDS011;8984;49.268;12.302;2023-10-13T14:21:08;5.65;;;2.67;;
17727;SDS011;8984;49.268;12.302;2023-10-13T14:23:35;10.10;;;3.53;;
17727;SDS011;8984;49.268;12.302;2023-10-13T14:26:04;9.27;;;2.88;;
17727;SDS011;8984;49.268;12.302;2023-10-13T14:28:35;11.32;;;3.00;;
17727;SDS011;8984;49.268;12.302;2023-10-13T14:31:04;8.27;;;3.15;;
17727;SDS011;8984;49.268;12.302;2023-10-13T14:33:34;13.27;;;3.50;;
17727;SDS011;8984;49.268;12.302;2023-10-13T14:36:02;9.90;;;3.50;;
17727;SDS011;8984;49.268;12.302;2023-10-13T14:38:29;10.23;;;3.28;;
17727;SDS011;8984;49.268;12.302;2023-10-13T14:40:56;8.75;;;3.20;;
17727;SDS011;8984;49.268;12.302;2023-10-13T14:43:23;11.63;;;3.03;;
17727;SDS011;8984;49.268;12.302;2023-10-13T14:45:53;11.02;;;3.60;;
17727;SDS011;8984;49.268;12.302;2023-10-13T14:48:20;9.27;;;3.17;;
17727;SDS011;8984;49.268;12.302;2023-10-13T14:50:50;11.27;;;3.35;;
17727;SDS011;8984;49.268;12.302;2023-10-13T14:53:17;8.80;;;3.00;;
17727;SDS011;8984;49.268;12.302;2023-10-13T14:55:46;10.15;;;3.47;;
17727;SDS011;8984;49.268;12.302;2023-10-13T14:58:13;8.60;;;3.15;;
17727;SDS011;8984;49.268;12.302;2023-10-13T15:00:41;15.07;;;3.13;;
17727;SDS011;8984;49.268;12.302;2023-10-13T15:03:11;6.30;;;3.05;;
17727;SDS011;8984;49.268;12.302;2023-10-13T15:05:38;9.52;;;3.00;;
17727;SDS011;8984;49.268;12.302;2023-10-13T15:08:08;14.38;;;3.72;;
17727;SDS011;8984;49.268;12.302;2023-10-13T15:10:35;8.07;;;3.70;;
17727;SDS011;8984;49.268;12.302;2023-10-13T15:13:02;10.63;;;3.38;;
17727;SDS011;8984;49.268;12.302;2023-10-13T15:15:28;6.18;;;3.22;;
17727;SDS011;8984;49.268;12.302;2023-10-13T15:17:57;9.38;;;3.05;;
17727;SDS011;8984;49.268;12.302;2023-10-13T15:20:25;6.38;;;3.05;;
17727;SDS011;8984;49.268;12.302;2023-10-13T15:22:53;9.98;;;3.63;;